FAOR Airport Information

Runway Information
Airport Frequencies
Airport Navaids
Airport Weather Information & NOTAM
ADDS - METARS form results

(1447 UTC 03 August 2020)
Data provider http://aviationweather.gov/metar/data/
 
METAR text: FAOR 031430Z 30005KT 270V360 CAVOK 20/M06 Q1030 NOSIG
Conditions at: FAOR (JOHANNESBURG/TAM, ZA) observed 1430 UTC 03 August 2020
Temperature: 20.0°C (68°F)
Dewpoint: -6.0°C (21°F) [RH = 17%]
Pressure (altimeter): 30.41 inches Hg (1030.0 mb)
Winds: from the WNW (300 degrees) at 6 MPH (5 knots; 2.6 m/s)
Visibility: 6 or more miles (10+ km)
Ceiling: ceiling and visibility are OK
Clouds: unknown
Weather: no significant weather observed at this time

METAR text: FAOR 031400Z VRB04KT CAVOK 20/M05 Q1030 NOSIG
Conditions at: FAOR (JOHANNESBURG/TAM, ZA) observed 1400 UTC 03 August 2020
Temperature: 20.0°C (68°F)
Dewpoint: -5.0°C (23°F) [RH = 18%]
Pressure (altimeter): 30.41 inches Hg (1030.0 mb)
Winds: variable direction winds at 5 MPH (4 knots; 2.1 m/s)
Visibility: 6 or more miles (10+ km)
Ceiling: ceiling and visibility are OK
Clouds: unknown
Weather: no significant weather observed at this time

Forecast for: FAOR (JOHANNESBURG/TAM, ZA)
Text: TAF FAOR 031000Z 0312/0418 VRB03KT CAVOK TX21/0313Z TN09/0404Z
Forecast period: 1200 UTC 03 August 2020 to 0700 UTC 04 August 2020
Forecast type: FROM: standard forecast or significant change
Winds: variable direction winds at 3 MPH (3 knots; 1.5 m/s)
Visibility: 6 or more miles 10+ km)
Ceiling: unknown
Clouds: missing
Weather: no significant weather forecast for this period
Text: BECMG 0407/0409 25009KT
Forecast period: 0700 to 1400 UTC 04 August 2020
Forecast type: BECOMING: Conditions expected to become as follows by 0900 UTC 04 August 2020
Winds: from the WSW (250 degrees) at 10 MPH (9 knots; 4.6 m/s)
Visibility: 6 or more miles 10+ km)
Ceiling: unknown
Clouds: missing
Weather: no significant weather forecast for this period
Text: BECMG 0414/0416 35009KT
Forecast period: 1400 to 1800 UTC 04 August 2020
Forecast type: BECOMING: Conditions expected to become as follows by 1600 UTC 04 August 2020
Winds: from the N (350 degrees) at 10 MPH (9 knots; 4.6 m/s)
Visibility: 6 or more miles 10+ km)
Ceiling: unknown
Clouds: missing
Weather: no significant weather forecast for this period